createdAt,value
2022-08-20T00:00:42.091Z,24.10
2022-08-20T00:04:07.356Z,24.00
2022-08-20T00:07:31.008Z,23.90
2022-08-20T00:10:57.180Z,23.80
2022-08-20T00:14:20.820Z,23.80
2022-08-20T00:17:44.270Z,23.70
2022-08-20T00:21:18.826Z,23.70
2022-08-20T00:24:43.142Z,23.60
2022-08-20T00:28:07.644Z,23.60
2022-08-20T00:31:31.629Z,23.50
2022-08-20T00:34:55.099Z,23.50
2022-08-20T00:38:20.539Z,23.50
2022-08-20T00:41:43.998Z,23.40
2022-08-20T00:45:08.251Z,23.40
2022-08-20T00:48:38.391Z,23.30
2022-08-20T00:52:08.715Z,23.30
2022-08-20T00:55:34.907Z,23.30
2022-08-20T00:58:58.633Z,23.30
2022-08-20T01:02:27.514Z,23.30
2022-08-20T01:05:53.547Z,23.30
2022-08-20T01:09:17.335Z,23.30
2022-08-20T01:13:08.397Z,23.30
2022-08-20T01:16:33.914Z,23.40
2022-08-20T01:20:03.978Z,23.40
2022-08-20T01:23:43.263Z,23.40
2022-08-20T01:27:09.701Z,23.40
2022-08-20T01:30:34.849Z,23.50
2022-08-20T01:34:01.792Z,23.50
2022-08-20T01:37:25.326Z,23.50
2022-08-20T01:41:28.493Z,23.60
2022-08-20T01:44:53.894Z,23.60
2022-08-20T01:48:19.963Z,23.60
2022-08-20T01:51:44.436Z,23.60
2022-08-20T01:55:11.115Z,23.60
2022-08-20T01:58:38.997Z,23.60
2022-08-20T02:02:07.048Z,23.70
2022-08-20T02:05:31.028Z,23.70
2022-08-20T02:08:57.836Z,23.70
2022-08-20T02:12:21.383Z,23.70
2022-08-20T02:15:45.584Z,23.80
2022-08-20T02:19:16.112Z,23.80
2022-08-20T02:22:50.379Z,23.80
2022-08-20T02:26:14.069Z,23.80
2022-08-20T02:29:37.711Z,23.80
2022-08-20T02:33:02.468Z,23.80
2022-08-20T02:36:28.284Z,23.80
2022-08-20T02:39:51.914Z,23.70
2022-08-20T02:43:18.260Z,23.70
2022-08-20T02:46:41.755Z,23.60
2022-08-20T02:50:08.112Z,23.60
2022-08-20T02:53:39.465Z,23.60
2022-08-20T02:57:04.261Z,23.60
2022-08-20T03:00:37.883Z,23.60
2022-08-20T03:04:02.906Z,23.50
2022-08-20T03:07:27.182Z,23.50
2022-08-20T03:10:53.254Z,23.50
2022-08-20T03:14:16.910Z,23.50
2022-08-20T03:17:40.447Z,23.50
2022-08-20T03:21:06.663Z,23.40
2022-08-20T03:24:33.402Z,23.40
2022-08-20T03:27:58.895Z,23.40
2022-08-20T03:31:23.464Z,23.30
2022-08-20T03:34:46.943Z,23.30
2022-08-20T03:38:14.358Z,23.30
2022-08-20T03:41:39.183Z,23.20
2022-08-20T03:45:04.503Z,23.20
2022-08-20T03:48:28.450Z,23.20
2022-08-20T03:51:57.440Z,23.20
2022-08-20T03:55:23.683Z,23.20
2022-08-20T03:58:47.640Z,23.20
2022-08-20T04:02:13.065Z,23.20
2022-08-20T04:05:40.707Z,23.20
2022-08-20T04:09:04.239Z,23.20
2022-08-20T04:12:27.913Z,25.00
2022-08-20T04:15:55.196Z,23.10
2022-08-20T04:19:21.527Z,23.20
2022-08-20T04:22:58.510Z,23.20
2022-08-20T04:26:23.151Z,23.20
2022-08-20T04:29:46.678Z,23.20
2022-08-20T04:33:11.118Z,23.20
2022-08-20T04:36:36.220Z,23.20
2022-08-20T04:40:17.473Z,23.30
2022-08-20T04:43:40.992Z,23.30
2022-08-20T04:47:04.606Z,23.30
2022-08-20T04:50:28.339Z,23.30
2022-08-20T04:53:54.641Z,23.30
2022-08-20T04:57:18.792Z,23.20
2022-08-20T05:00:42.728Z,23.10
2022-08-20T05:04:06.215Z,23.10
2022-08-20T05:07:29.806Z,22.90
2022-08-20T05:11:30.169Z,22.80
2022-08-20T05:14:41.308Z,22.80
2022-08-20T05:18:07.764Z,22.70
2022-08-20T05:21:31.269Z,22.70
2022-08-20T05:24:56.769Z,22.60
2022-08-20T05:28:26.334Z,22.60
2022-08-20T05:31:50.108Z,22.60
2022-08-20T05:35:13.608Z,22.60
2022-08-20T05:38:38.085Z,22.60
2022-08-20T05:42:01.884Z,22.60
2022-08-20T05:45:26.795Z,22.60
2022-08-20T05:48:50.308Z,22.60
2022-08-20T05:52:13.955Z,22.60
2022-08-20T05:55:37.935Z,22.60
2022-08-20T05:59:04.305Z,22.60
2022-08-20T06:02:47.201Z,22.60
2022-08-20T06:06:18.307Z,22.60
2022-08-20T06:09:55.703Z,22.70
2022-08-20T06:13:19.222Z,22.70
2022-08-20T06:16:56.323Z,22.80
2022-08-20T06:20:23.951Z,22.90
2022-08-20T06:23:57.051Z,23.00
2022-08-20T06:27:23.086Z,23.20
2022-08-20T06:30:46.935Z,23.30
2022-08-20T06:34:10.719Z,23.40
2022-08-20T06:37:38.509Z,23.60
2022-08-20T06:41:02.880Z,23.70
2022-08-20T06:44:29.038Z,23.80
2022-08-20T06:47:55.912Z,24.10
2022-08-20T06:51:20.238Z,24.40
2022-08-20T06:54:45.245Z,24.60
2022-08-20T06:58:35.602Z,24.70
2022-08-20T07:01:56.478Z,24.80
2022-08-20T07:05:20.266Z,24.90
2022-08-20T07:08:44.313Z,24.90
2022-08-20T07:12:10.553Z,24.80
2022-08-20T07:15:34.672Z,24.80
2022-08-20T07:18:58.234Z,24.80
2022-08-20T07:22:21.795Z,24.80
2022-08-20T08:24:21.104Z,24.70
2022-08-20T08:27:48.971Z,27.60
2022-08-20T08:31:12.740Z,27.90
2022-08-20T08:34:37.930Z,28.20
2022-08-20T08:38:02.810Z,28.30
2022-08-20T08:41:33.849Z,28.40
2022-08-20T08:44:57.951Z,28.60
2022-08-20T08:48:21.659Z,28.80
2022-08-20T08:51:50.946Z,29.10
2022-08-20T08:55:21.923Z,29.50
2022-08-20T08:58:45.983Z,29.70
2022-08-20T09:02:09.710Z,29.90
2022-08-20T09:05:43.680Z,29.90
2022-08-20T09:09:14.547Z,29.80
2022-08-20T09:12:39.414Z,29.70
2022-08-20T09:16:05.223Z,29.40
2022-08-20T09:19:28.882Z,29.30
2022-08-20T09:22:52.411Z,29.00
2022-08-20T09:26:15.898Z,28.90
2022-08-20T09:29:41.218Z,28.60
2022-08-20T09:33:04.998Z,28.40
2022-08-20T09:36:32.027Z,28.30
2022-08-20T09:39:56.938Z,28.10
2022-08-20T09:43:20.584Z,27.90
2022-08-20T09:46:45.475Z,27.60
2022-08-20T09:50:10.685Z,27.40
2022-08-20T09:53:34.453Z,27.30
2022-08-20T09:56:59.547Z,27.10
2022-08-20T10:00:23.334Z,27.00
2022-08-20T10:03:50.844Z,27.00
2022-08-20T10:07:16.040Z,27.00
2022-08-20T10:10:40.151Z,27.10
2022-08-20T10:14:03.780Z,27.20
2022-08-20T10:17:27.341Z,27.30
2022-08-20T10:20:52.264Z,27.30
2022-08-20T10:24:15.730Z,27.40
2022-08-20T10:27:40.441Z,27.40
2022-08-20T10:31:06.394Z,27.50
2022-08-20T10:34:31.530Z,27.50
2022-08-20T10:37:56.583Z,27.70
2022-08-20T10:41:21.340Z,27.80
2022-08-20T10:44:45.033Z,27.80
2022-08-20T10:48:08.518Z,27.90
2022-08-20T10:51:33.171Z,27.90
2022-08-20T10:54:58.202Z,28.00
2022-08-20T10:58:23.823Z,28.20
2022-08-20T11:01:47.650Z,28.40
2022-08-20T11:05:11.310Z,28.40
2022-08-20T11:08:36.277Z,28.30
2022-08-20T11:12:01.200Z,28.20
2022-08-20T11:15:25.402Z,28.00
2022-08-20T11:18:48.821Z,27.70
2022-08-20T11:22:12.684Z,27.50
2022-08-20T11:25:36.221Z,27.40
2022-08-20T11:29:01.021Z,27.20
2022-08-20T11:32:25.416Z,27.10
2022-08-20T11:35:50.088Z,27.00
2022-08-20T11:39:13.888Z,27.00
2022-08-20T11:42:53.213Z,26.90
2022-08-20T11:46:26.547Z,29.60
2022-08-20T11:49:59.607Z,26.80
2022-08-20T11:53:23.123Z,26.70
2022-08-20T11:56:46.718Z,26.70
2022-08-20T12:00:15.703Z,26.70
2022-08-20T12:03:40.682Z,26.60
2022-08-20T12:07:11.863Z,26.60
2022-08-20T12:10:36.115Z,26.60
2022-08-20T12:13:59.688Z,26.50
2022-08-20T12:17:27.899Z,26.60
2022-08-20T12:20:52.790Z,26.60
2022-08-20T12:24:16.311Z,26.70
2022-08-20T12:27:40.511Z,26.70
2022-08-20T12:31:04.086Z,26.80
2022-08-20T12:34:27.599Z,26.90
2022-08-20T12:37:53.378Z,26.90
2022-08-20T12:41:16.809Z,27.00
2022-08-20T12:44:40.636Z,27.00
2022-08-20T12:48:07.924Z,27.10
2022-08-20T12:51:31.444Z,27.20
2022-08-20T12:54:57.843Z,27.30
2022-08-20T12:58:21.377Z,27.40
2022-08-20T13:01:45.226Z,27.50
2022-08-20T13:05:11.226Z,27.60
2022-08-20T13:08:34.750Z,27.70
2022-08-20T13:11:59.645Z,27.80
2022-08-20T13:15:26.857Z,27.90
2022-08-20T13:18:50.256Z,27.80
2022-08-20T13:22:14.489Z,27.80
2022-08-20T13:25:38.032Z,27.50
2022-08-20T13:29:02.889Z,27.40
2022-08-20T13:32:26.826Z,27.30
2022-08-20T13:35:50.353Z,27.10
2022-08-20T13:39:13.983Z,26.90
2022-08-20T13:42:38.347Z,26.80
2022-08-20T13:46:03.370Z,26.90
2022-08-20T13:49:26.939Z,27.00
2022-08-20T13:52:57.647Z,27.20
2022-08-20T13:56:21.294Z,27.40
2022-08-20T13:59:48.851Z,27.50
2022-08-20T14:03:14.017Z,27.70
2022-08-20T14:06:43.669Z,27.90
2022-08-20T14:10:11.938Z,28.00
2022-08-20T14:13:35.447Z,28.10
2022-08-20T14:16:59.058Z,28.20
2022-08-20T14:20:29.164Z,28.20
2022-08-20T14:23:52.954Z,28.10
2022-08-20T14:27:21.125Z,28.10
2022-08-20T14:30:44.971Z,28.10
2022-08-20T14:34:08.444Z,28.00
2022-08-20T14:37:37.917Z,27.90
2022-08-20T14:41:01.453Z,27.90
2022-08-20T14:44:24.927Z,27.90
2022-08-20T14:47:53.775Z,28.00
2022-08-20T14:51:17.652Z,28.00
2022-08-20T14:54:43.692Z,28.00
2022-08-20T14:58:12.282Z,28.00
2022-08-20T15:01:35.804Z,27.90
2022-08-20T15:04:59.378Z,27.90
2022-08-20T15:08:28.799Z,27.80
2022-08-20T15:11:53.865Z,27.70
2022-08-20T15:15:19.421Z,27.50
2022-08-20T15:18:43.916Z,27.40
2022-08-20T15:22:07.421Z,27.40
2022-08-20T15:25:36.733Z,27.10
2022-08-20T15:29:02.977Z,27.00
2022-08-20T15:32:26.662Z,26.80
2022-08-20T15:35:50.164Z,26.80
2022-08-20T15:39:13.697Z,26.70
2022-08-20T15:42:37.896Z,26.60
2022-08-20T15:46:06.799Z,26.60
2022-08-20T15:49:31.087Z,26.40
2022-08-20T15:53:02.238Z,26.40
2022-08-20T15:56:52.210Z,26.30
2022-08-20T16:00:22.270Z,26.20
2022-08-20T16:04:35.766Z,26.20
2022-08-20T16:08:14.574Z,26.20
2022-08-20T16:11:53.380Z,26.20
2022-08-20T16:15:25.018Z,26.20
2022-08-20T16:18:53.399Z,26.30
2022-08-20T16:22:20.332Z,26.30
2022-08-20T16:26:05.545Z,26.30
2022-08-20T16:29:45.771Z,26.30
2022-08-20T16:33:17.589Z,26.30
2022-08-20T16:36:57.007Z,26.30
2022-08-20T16:40:35.493Z,26.30
2022-08-20T16:44:07.717Z,26.40
2022-08-20T16:47:35.881Z,26.50
2022-08-20T16:51:06.619Z,26.50
2022-08-20T16:54:31.136Z,26.50
2022-08-20T16:57:56.422Z,26.50
2022-08-20T17:01:27.551Z,26.50
2022-08-20T17:04:59.307Z,26.50
2022-08-20T17:08:29.109Z,26.60
2022-08-20T17:11:52.889Z,26.60
2022-08-20T17:15:26.755Z,26.50
2022-08-20T17:18:52.578Z,26.50
2022-08-20T17:22:21.030Z,26.50
2022-08-20T17:25:46.305Z,26.40
2022-08-20T17:29:17.359Z,26.50
2022-08-20T17:33:02.728Z,26.50
2022-08-20T17:36:26.673Z,26.50
2022-08-20T17:39:54.170Z,26.50
2022-08-20T17:43:28.091Z,26.40
2022-08-20T17:46:54.692Z,26.40
2022-08-20T17:50:29.520Z,26.40
2022-08-20T17:53:59.989Z,26.30
2022-08-20T17:57:36.779Z,26.30
2022-08-20T18:01:02.103Z,26.20
2022-08-20T18:04:25.579Z,26.20
2022-08-20T18:08:17.263Z,26.20
2022-08-20T18:11:49.219Z,26.10
2022-08-20T18:15:24.272Z,26.10
2022-08-20T18:18:57.504Z,26.00
2022-08-20T18:22:28.954Z,26.00
2022-08-20T18:26:01.611Z,25.90
2022-08-20T18:29:31.018Z,25.80
2022-08-20T18:33:07.126Z,25.80
2022-08-20T18:36:31.079Z,25.70
2022-08-20T18:40:10.014Z,25.60
2022-08-20T18:43:35.659Z,25.60
2022-08-20T18:47:03.783Z,25.50
2022-08-20T18:50:43.891Z,25.40
2022-08-20T18:54:07.806Z,26.70
2022-08-20T18:57:41.620Z,25.30
2022-08-20T19:01:14.414Z,25.30
2022-08-20T19:04:39.686Z,25.10
2022-08-20T19:08:05.978Z,25.10
2022-08-20T19:12:03.544Z,25.00
2022-08-20T19:15:28.511Z,25.00
2022-08-20T19:18:56.177Z,24.90
2022-08-20T19:22:22.151Z,24.80
2022-08-20T19:25:56.586Z,24.80
2022-08-20T19:29:27.815Z,24.70
2022-08-20T19:32:53.736Z,24.70
2022-08-20T19:36:28.101Z,24.60
2022-08-20T19:39:53.512Z,24.60
2022-08-20T19:43:21.379Z,24.50
2022-08-20T19:46:48.548Z,24.50
2022-08-20T19:50:22.766Z,24.40
2022-08-20T19:53:50.424Z,24.40
2022-08-20T19:57:15.407Z,24.30
2022-08-20T20:00:42.221Z,24.30
2022-08-20T20:04:08.474Z,24.30
2022-08-20T20:07:40.826Z,24.30
2022-08-20T20:11:06.860Z,24.20
2022-08-20T20:14:34.180Z,24.20
2022-08-20T20:17:59.531Z,24.10
2022-08-20T20:21:34.290Z,24.10
2022-08-20T20:25:08.562Z,24.00
2022-08-20T20:28:46.101Z,24.00
2022-08-20T20:32:20.446Z,24.00
2022-08-20T20:35:46.755Z,23.90
2022-08-20T20:39:27.241Z,23.90
2022-08-20T20:43:01.813Z,23.90
2022-08-20T20:46:28.760Z,23.80
2022-08-20T20:49:56.717Z,23.80
2022-08-20T20:53:47.506Z,23.80
2022-08-20T20:57:36.473Z,23.80
2022-08-20T21:01:02.554Z,23.70
2022-08-20T21:04:27.841Z,23.70
2022-08-20T21:07:55.832Z,23.70
2022-08-20T21:11:19.289Z,23.60
2022-08-20T21:14:44.970Z,22.60
2022-08-20T21:18:10.049Z,23.60
2022-08-20T21:21:37.029Z,23.60
2022-08-20T21:25:00.726Z,23.60
2022-08-20T21:28:24.348Z,23.60
2022-08-20T21:31:52.648Z,23.50
2022-08-20T21:35:17.362Z,23.50
2022-08-20T21:38:42.230Z,23.50
2022-08-20T21:42:28.395Z,23.50
2022-08-20T21:45:52.469Z,23.40
2022-08-20T21:49:16.292Z,23.40
2022-08-20T21:52:43.952Z,23.40
2022-08-20T21:56:24.885Z,23.30
2022-08-20T21:59:49.415Z,23.20
2022-08-20T22:03:14.188Z,23.10
2022-08-20T22:06:37.945Z,23.10
2022-08-20T22:10:01.485Z,22.90
2022-08-20T22:13:31.633Z,22.90
2022-08-20T22:16:55.446Z,22.80
2022-08-20T22:20:19.110Z,22.70
2022-08-20T22:23:43.192Z,22.70
2022-08-20T22:27:08.395Z,22.60
2022-08-20T22:30:33.502Z,22.50
2022-08-20T22:33:58.654Z,22.50
2022-08-20T22:37:32.755Z,22.50
2022-08-20T22:40:58.707Z,22.50
2022-08-20T22:44:22.180Z,22.40
2022-08-20T22:47:47.637Z,22.40
2022-08-20T22:51:20.100Z,22.40
2022-08-20T22:54:45.429Z,22.50
2022-08-20T22:58:09.416Z,22.30
2022-08-20T23:01:33.863Z,22.20
2022-08-20T23:04:59.354Z,22.10
2022-08-20T23:08:23.164Z,22.10
2022-08-20T23:11:51.428Z,22.00
2022-08-20T23:15:15.102Z,21.90
2022-08-20T23:18:38.705Z,21.90
2022-08-20T23:22:03.643Z,21.70
2022-08-20T23:25:27.463Z,21.70
2022-08-20T23:28:51.563Z,21.60
2022-08-20T23:32:15.439Z,21.50
2022-08-20T23:35:40.763Z,21.40
2022-08-20T23:39:07.445Z,21.50
2022-08-20T23:42:32.046Z,21.40
2022-08-20T23:45:58.699Z,21.40
2022-08-20T23:49:22.369Z,21.30
2022-08-20T23:52:46.043Z,21.20
2022-08-20T23:56:10.894Z,21.20
2022-08-20T23:59:34.391Z,21.10
